sensor_id;sensor_type;location;lat;lon;timestamp;P1;durP1;ratioP1;P2;durP2;ratioP2
14619;SDS011;32125;48.518;9.050;2023-08-01T00:00:03;5.20;;;3.63;;
14619;SDS011;32125;48.518;9.050;2023-08-01T00:02:32;4.83;;;3.67;;
14619;SDS011;32125;48.518;9.050;2023-08-01T00:04:58;5.07;;;4.00;;
14619;SDS011;32125;48.518;9.050;2023-08-01T00:07:25;5.00;;;3.80;;
14619;SDS011;32125;48.518;9.050;2023-08-01T00:09:56;7.27;;;3.90;;
14619;SDS011;32125;48.518;9.050;2023-08-01T00:12:23;5.60;;;4.13;;
14619;SDS011;32125;48.518;9.050;2023-08-01T00:14:49;5.27;;;3.60;;
14619;SDS011;32125;48.518;9.050;2023-08-01T00:17:15;4.70;;;3.77;;
14619;SDS011;32125;48.518;9.050;2023-08-01T00:19:41;6.60;;;5.27;;
14619;SDS011;32125;48.518;9.050;2023-08-01T00:22:07;6.57;;;4.07;;
14619;SDS011;32125;48.518;9.050;2023-08-01T00:24:34;4.63;;;3.70;;
14619;SDS011;32125;48.518;9.050;2023-08-01T00:27:01;9.10;;;4.50;;
14619;SDS011;32125;48.518;9.050;2023-08-01T00:29:27;5.93;;;4.27;;
14619;SDS011;32125;48.518;9.050;2023-08-01T00:31:53;5.10;;;4.17;;
14619;SDS011;32125;48.518;9.050;2023-08-01T00:34:19;7.53;;;4.10;;
14619;SDS011;32125;48.518;9.050;2023-08-01T00:36:47;5.23;;;3.80;;
14619;SDS011;32125;48.518;9.050;2023-08-01T00:39:15;6.73;;;4.07;;
14619;SDS011;32125;48.518;9.050;2023-08-01T00:44:14;5.63;;;4.30;;
14619;SDS011;32125;48.518;9.050;2023-08-01T00:46:40;6.07;;;3.70;;
14619;SDS011;32125;48.518;9.050;2023-08-01T00:49:08;6.43;;;3.93;;
14619;SDS011;32125;48.518;9.050;2023-08-01T00:51:34;4.97;;;3.90;;
14619;SDS011;32125;48.518;9.050;2023-08-01T00:54:01;6.37;;;4.03;;
14619;SDS011;32125;48.518;9.050;2023-08-01T00:56:27;4.27;;;3.70;;
14619;SDS011;32125;48.518;9.050;2023-08-01T00:58:53;5.97;;;3.73;;
14619;SDS011;32125;48.518;9.050;2023-08-01T01:01:18;4.17;;;3.70;;
14619;SDS011;32125;48.518;9.050;2023-08-01T01:03:45;4.87;;;3.73;;
14619;SDS011;32125;48.518;9.050;2023-08-01T01:08:43;4.97;;;4.00;;
14619;SDS011;32125;48.518;9.050;2023-08-01T01:11:09;4.57;;;3.80;;
14619;SDS011;32125;48.518;9.050;2023-08-01T01:13:35;3.97;;;3.53;;
14619;SDS011;32125;48.518;9.050;2023-08-01T01:16:04;5.70;;;3.97;;
14619;SDS011;32125;48.518;9.050;2023-08-01T01:18:30;6.67;;;4.00;;
14619;SDS011;32125;48.518;9.050;2023-08-01T01:20:56;6.00;;;3.70;;
14619;SDS011;32125;48.518;9.050;2023-08-01T01:23:22;4.07;;;3.50;;
14619;SDS011;32125;48.518;9.050;2023-08-01T01:25:50;4.83;;;3.57;;
14619;SDS011;32125;48.518;9.050;2023-08-01T01:28:21;6.17;;;4.23;;
14619;SDS011;32125;48.518;9.050;2023-08-01T01:30:48;5.57;;;3.43;;
14619;SDS011;32125;48.518;9.050;2023-08-01T01:33:16;8.83;;;3.77;;
14619;SDS011;32125;48.518;9.050;2023-08-01T01:35:42;6.27;;;3.40;;
14619;SDS011;32125;48.518;9.050;2023-08-01T01:38:08;6.87;;;3.87;;
14619;SDS011;32125;48.518;9.050;2023-08-01T01:40:34;5.03;;;4.10;;
14619;SDS011;32125;48.518;9.050;2023-08-01T01:43:00;6.70;;;4.03;;
14619;SDS011;32125;48.518;9.050;2023-08-01T01:45:27;4.80;;;3.90;;
14619;SDS011;32125;48.518;9.050;2023-08-01T01:47:53;5.73;;;4.10;;
14619;SDS011;32125;48.518;9.050;2023-08-01T01:50:19;4.80;;;4.07;;
14619;SDS011;32125;48.518;9.050;2023-08-01T01:52:45;3.90;;;3.50;;
14619;SDS011;32125;48.518;9.050;2023-08-01T01:55:11;5.90;;;4.40;;
14619;SDS011;32125;48.518;9.050;2023-08-01T01:57:37;5.27;;;3.97;;
14619;SDS011;32125;48.518;9.050;2023-08-01T02:00:04;5.20;;;3.53;;
14619;SDS011;32125;48.518;9.050;2023-08-01T02:02:30;5.40;;;4.20;;
14619;SDS011;32125;48.518;9.050;2023-08-01T02:04:55;4.40;;;3.87;;
14619;SDS011;32125;48.518;9.050;2023-08-01T02:07:24;6.70;;;3.97;;
14619;SDS011;32125;48.518;9.050;2023-08-01T02:09:50;4.53;;;3.40;;
14619;SDS011;32125;48.518;9.050;2023-08-01T02:12:16;5.37;;;4.03;;
14619;SDS011;32125;48.518;9.050;2023-08-01T02:14:42;5.27;;;3.70;;
14619;SDS011;32125;48.518;9.050;2023-08-01T02:17:08;4.40;;;3.60;;
14619;SDS011;32125;48.518;9.050;2023-08-01T02:19:34;3.53;;;3.20;;
14619;SDS011;32125;48.518;9.050;2023-08-01T02:22:02;5.67;;;4.03;;
14619;SDS011;32125;48.518;9.050;2023-08-01T02:24:30;4.80;;;3.80;;
14619;SDS011;32125;48.518;9.050;2023-08-01T02:26:56;5.43;;;3.40;;
14619;SDS011;32125;48.518;9.050;2023-08-01T02:29:22;5.10;;;3.40;;
14619;SDS011;32125;48.518;9.050;2023-08-01T02:31:48;7.00;;;3.60;;
14619;SDS011;32125;48.518;9.050;2023-08-01T02:34:14;4.60;;;3.40;;
14619;SDS011;32125;48.518;9.050;2023-08-01T02:36:39;4.63;;;3.53;;
14619;SDS011;32125;48.518;9.050;2023-08-01T02:39:08;4.43;;;3.63;;
14619;SDS011;32125;48.518;9.050;2023-08-01T02:41:34;6.10;;;3.47;;
14619;SDS011;32125;48.518;9.050;2023-08-01T02:44:00;3.87;;;3.37;;
14619;SDS011;32125;48.518;9.050;2023-08-01T02:46:26;3.97;;;3.37;;
14619;SDS011;32125;48.518;9.050;2023-08-01T02:48:54;4.70;;;3.63;;
14619;SDS011;32125;48.518;9.050;2023-08-01T02:51:20;5.07;;;4.10;;
14619;SDS011;32125;48.518;9.050;2023-08-01T02:53:46;4.47;;;3.30;;
14619;SDS011;32125;48.518;9.050;2023-08-01T02:56:12;3.77;;;3.20;;
14619;SDS011;32125;48.518;9.050;2023-08-01T02:58:38;4.37;;;3.43;;
14619;SDS011;32125;48.518;9.050;2023-08-01T03:01:07;5.17;;;3.40;;
14619;SDS011;32125;48.518;9.050;2023-08-01T03:03:34;4.23;;;3.40;;
14619;SDS011;32125;48.518;9.050;2023-08-01T03:06:01;4.03;;;3.17;;
14619;SDS011;32125;48.518;9.050;2023-08-01T03:08:27;3.53;;;3.23;;
14619;SDS011;32125;48.518;9.050;2023-08-01T03:10:56;5.77;;;3.33;;
14619;SDS011;32125;48.518;9.050;2023-08-01T03:13:22;5.40;;;3.17;;
14619;SDS011;32125;48.518;9.050;2023-08-01T03:15:51;5.07;;;3.27;;
14619;SDS011;32125;48.518;9.050;2023-08-01T03:18:17;5.50;;;3.50;;
14619;SDS011;32125;48.518;9.050;2023-08-01T03:20:45;3.83;;;3.17;;
14619;SDS011;32125;48.518;9.050;2023-08-01T03:23:11;3.58;;;3.03;;
14619;SDS011;32125;48.518;9.050;2023-08-01T03:25:37;4.93;;;3.40;;
14619;SDS011;32125;48.518;9.050;2023-08-01T03:28:03;5.00;;;3.17;;
14619;SDS011;32125;48.518;9.050;2023-08-01T03:30:31;3.73;;;2.90;;
14619;SDS011;32125;48.518;9.050;2023-08-01T03:32:57;4.47;;;3.30;;
14619;SDS011;32125;48.518;9.050;2023-08-01T03:35:23;4.93;;;3.30;;
14619;SDS011;32125;48.518;9.050;2023-08-01T03:37:51;7.27;;;3.17;;
14619;SDS011;32125;48.518;9.050;2023-08-01T03:40:17;6.07;;;3.20;;
14619;SDS011;32125;48.518;9.050;2023-08-01T03:42:44;3.53;;;3.00;;
14619;SDS011;32125;48.518;9.050;2023-08-01T03:45:13;5.47;;;3.47;;
14619;SDS011;32125;48.518;9.050;2023-08-01T03:47:39;5.20;;;3.00;;
14619;SDS011;32125;48.518;9.050;2023-08-01T03:50:05;3.87;;;3.10;;
14619;SDS011;32125;48.518;9.050;2023-08-01T03:52:31;3.93;;;3.30;;
14619;SDS011;32125;48.518;9.050;2023-08-01T03:55:00;5.73;;;3.33;;
14619;SDS011;32125;48.518;9.050;2023-08-01T03:57:26;6.20;;;3.13;;
14619;SDS011;32125;48.518;9.050;2023-08-01T03:59:52;6.33;;;3.33;;
14619;SDS011;32125;48.518;9.050;2023-08-01T04:02:18;5.30;;;2.80;;
14619;SDS011;32125;48.518;9.050;2023-08-01T04:04:44;6.38;;;3.13;;
14619;SDS011;32125;48.518;9.050;2023-08-01T04:07:10;4.40;;;2.83;;
14619;SDS011;32125;48.518;9.050;2023-08-01T04:09:36;3.53;;;3.00;;
14619;SDS011;32125;48.518;9.050;2023-08-01T04:12:03;6.53;;;3.27;;
14619;SDS011;32125;48.518;9.050;2023-08-01T04:14:32;4.60;;;3.30;;
14619;SDS011;32125;48.518;9.050;2023-08-01T04:16:58;5.70;;;3.20;;
14619;SDS011;32125;48.518;9.050;2023-08-01T04:19:23;3.88;;;2.85;;
14619;SDS011;32125;48.518;9.050;2023-08-01T04:21:50;4.55;;;3.08;;
14619;SDS011;32125;48.518;9.050;2023-08-01T04:24:16;5.40;;;3.20;;
14619;SDS011;32125;48.518;9.050;2023-08-01T04:26:42;5.75;;;3.13;;
14619;SDS011;32125;48.518;9.050;2023-08-01T04:29:08;3.45;;;2.95;;
14619;SDS011;32125;48.518;9.050;2023-08-01T04:31:34;4.47;;;3.17;;
14619;SDS011;32125;48.518;9.050;2023-08-01T04:34:00;4.88;;;3.08;;
14619;SDS011;32125;48.518;9.050;2023-08-01T04:36:26;5.50;;;3.00;;
14619;SDS011;32125;48.518;9.050;2023-08-01T04:38:52;4.82;;;3.33;;
14619;SDS011;32125;48.518;9.050;2023-08-01T04:41:17;5.07;;;3.03;;
14619;SDS011;32125;48.518;9.050;2023-08-01T04:43:43;3.93;;;3.23;;
14619;SDS011;32125;48.518;9.050;2023-08-01T04:46:09;4.75;;;3.40;;
14619;SDS011;32125;48.518;9.050;2023-08-01T04:48:35;6.60;;;3.50;;
14619;SDS011;32125;48.518;9.050;2023-08-01T04:51:04;5.00;;;3.20;;
14619;SDS011;32125;48.518;9.050;2023-08-01T04:53:29;5.05;;;3.40;;
14619;SDS011;32125;48.518;9.050;2023-08-01T04:55:57;5.97;;;3.30;;
14619;SDS011;32125;48.518;9.050;2023-08-01T04:58:23;6.97;;;3.65;;
14619;SDS011;32125;48.518;9.050;2023-08-01T05:00:52;4.65;;;2.97;;
14619;SDS011;32125;48.518;9.050;2023-08-01T05:03:18;5.93;;;3.65;;
14619;SDS011;32125;48.518;9.050;2023-08-01T05:05:44;7.07;;;3.67;;
14619;SDS011;32125;48.518;9.050;2023-08-01T05:08:10;5.43;;;3.20;;
14619;SDS011;32125;48.518;9.050;2023-08-01T05:10:36;5.10;;;3.65;;
14619;SDS011;32125;48.518;9.050;2023-08-01T05:13:02;6.18;;;3.65;;
14619;SDS011;32125;48.518;9.050;2023-08-01T05:15:27;4.68;;;3.33;;
14619;SDS011;32125;48.518;9.050;2023-08-01T05:17:53;5.03;;;3.20;;
14619;SDS011;32125;48.518;9.050;2023-08-01T05:20:20;7.43;;;3.83;;
14619;SDS011;32125;48.518;9.050;2023-08-01T05:22:46;4.50;;;3.63;;
14619;SDS011;32125;48.518;9.050;2023-08-01T05:25:12;6.28;;;3.30;;
14619;SDS011;32125;48.518;9.050;2023-08-01T05:27:38;5.75;;;3.50;;
14619;SDS011;32125;48.518;9.050;2023-08-01T05:30:04;4.70;;;3.22;;
14619;SDS011;32125;48.518;9.050;2023-08-01T05:32:30;4.72;;;3.13;;
14619;SDS011;32125;48.518;9.050;2023-08-01T05:34:59;6.85;;;3.33;;
14619;SDS011;32125;48.518;9.050;2023-08-01T05:37:25;4.40;;;3.50;;
14619;SDS011;32125;48.518;9.050;2023-08-01T05:39:51;4.45;;;3.10;;
14619;SDS011;32125;48.518;9.050;2023-08-01T05:42:17;5.78;;;2.85;;
14619;SDS011;32125;48.518;9.050;2023-08-01T05:44:43;3.70;;;2.40;;
14619;SDS011;32125;48.518;9.050;2023-08-01T05:47:09;3.45;;;2.50;;
14619;SDS011;32125;48.518;9.050;2023-08-01T05:49:35;3.88;;;2.42;;
14619;SDS011;32125;48.518;9.050;2023-08-01T05:52:01;2.75;;;2.55;;
14619;SDS011;32125;48.518;9.050;2023-08-01T05:54:29;3.20;;;2.30;;
14619;SDS011;32125;48.518;9.050;2023-08-01T05:56:55;8.55;;;2.88;;
14619;SDS011;32125;48.518;9.050;2023-08-01T05:59:21;6.13;;;3.00;;
14619;SDS011;32125;48.518;9.050;2023-08-01T06:01:49;5.07;;;2.95;;
14619;SDS011;32125;48.518;9.050;2023-08-01T06:04:15;5.13;;;3.20;;
14619;SDS011;32125;48.518;9.050;2023-08-01T06:06:41;8.38;;;3.03;;
14619;SDS011;32125;48.518;9.050;2023-08-01T06:09:07;6.80;;;3.13;;
14619;SDS011;32125;48.518;9.050;2023-08-01T06:11:33;6.57;;;3.45;;
14619;SDS011;32125;48.518;9.050;2023-08-01T06:13:59;4.47;;;3.25;;
14619;SDS011;32125;48.518;9.050;2023-08-01T06:16:28;4.25;;;3.60;;
14619;SDS011;32125;48.518;9.050;2023-08-01T06:18:56;5.57;;;4.05;;
14619;SDS011;32125;48.518;9.050;2023-08-01T06:21:22;6.97;;;4.00;;
14619;SDS011;32125;48.518;9.050;2023-08-01T06:23:48;5.65;;;3.80;;
14619;SDS011;32125;48.518;9.050;2023-08-01T06:26:13;5.60;;;3.92;;
14619;SDS011;32125;48.518;9.050;2023-08-01T06:28:42;5.75;;;4.10;;
14619;SDS011;32125;48.518;9.050;2023-08-01T06:31:08;5.63;;;4.00;;
14619;SDS011;32125;48.518;9.050;2023-08-01T06:33:34;5.82;;;3.70;;
14619;SDS011;32125;48.518;9.050;2023-08-01T06:36:00;5.25;;;4.25;;
14619;SDS011;32125;48.518;9.050;2023-08-01T06:38:26;5.20;;;3.95;;
14619;SDS011;32125;48.518;9.050;2023-08-01T06:40:52;6.47;;;3.78;;
14619;SDS011;32125;48.518;9.050;2023-08-01T06:43:18;4.82;;;4.32;;
14619;SDS011;32125;48.518;9.050;2023-08-01T06:45:43;6.63;;;4.10;;
14619;SDS011;32125;48.518;9.050;2023-08-01T06:48:09;5.10;;;4.25;;
14619;SDS011;32125;48.518;9.050;2023-08-01T06:50:34;6.30;;;4.18;;
14619;SDS011;32125;48.518;9.050;2023-08-01T06:53:00;5.38;;;4.25;;
14619;SDS011;32125;48.518;9.050;2023-08-01T06:55:27;4.47;;;3.90;;
14619;SDS011;32125;48.518;9.050;2023-08-01T06:57:53;5.03;;;4.38;;
14619;SDS011;32125;48.518;9.050;2023-08-01T07:00:19;4.45;;;3.92;;
14619;SDS011;32125;48.518;9.050;2023-08-01T07:02:44;6.45;;;3.90;;
14619;SDS011;32125;48.518;9.050;2023-08-01T07:05:10;6.05;;;4.00;;
14619;SDS011;32125;48.518;9.050;2023-08-01T07:07:38;5.13;;;3.92;;
14619;SDS011;32125;48.518;9.050;2023-08-01T07:10:07;7.40;;;4.50;;
14619;SDS011;32125;48.518;9.050;2023-08-01T07:12:33;6.45;;;3.78;;
14619;SDS011;32125;48.518;9.050;2023-08-01T07:14:59;5.13;;;4.03;;
14619;SDS011;32125;48.518;9.050;2023-08-01T07:17:25;5.38;;;3.95;;
14619;SDS011;32125;48.518;9.050;2023-08-01T07:19:51;5.65;;;3.60;;
14619;SDS011;32125;48.518;9.050;2023-08-01T07:22:18;4.72;;;4.00;;
14619;SDS011;32125;48.518;9.050;2023-08-01T07:24:47;5.65;;;3.90;;
14619;SDS011;32125;48.518;9.050;2023-08-01T07:27:12;6.10;;;3.83;;
14619;SDS011;32125;48.518;9.050;2023-08-01T07:29:38;4.68;;;3.63;;
14619;SDS011;32125;48.518;9.050;2023-08-01T07:32:07;6.63;;;3.70;;
14619;SDS011;32125;48.518;9.050;2023-08-01T07:34:35;4.50;;;3.63;;
14619;SDS011;32125;48.518;9.050;2023-08-01T07:37:01;6.80;;;3.55;;
14619;SDS011;32125;48.518;9.050;2023-08-01T07:39:29;5.68;;;3.67;;
14619;SDS011;32125;48.518;9.050;2023-08-01T07:41:55;6.00;;;3.50;;
14619;SDS011;32125;48.518;9.050;2023-08-01T07:44:22;5.75;;;3.60;;
14619;SDS011;32125;48.518;9.050;2023-08-01T07:46:50;5.03;;;3.65;;
14619;SDS011;32125;48.518;9.050;2023-08-01T07:49:16;4.68;;;3.88;;
14619;SDS011;32125;48.518;9.050;2023-08-01T07:51:43;4.30;;;3.40;;
14619;SDS011;32125;48.518;9.050;2023-08-01T07:54:09;3.97;;;3.47;;
14619;SDS011;32125;48.518;9.050;2023-08-01T07:56:35;5.22;;;3.42;;
14619;SDS011;32125;48.518;9.050;2023-08-01T07:59:01;3.80;;;3.30;;
14619;SDS011;32125;48.518;9.050;2023-08-01T08:01:30;5.57;;;3.15;;
14619;SDS011;32125;48.518;9.050;2023-08-01T08:03:56;6.05;;;4.03;;
14619;SDS011;32125;48.518;9.050;2023-08-01T08:06:22;6.07;;;3.70;;
14619;SDS011;32125;48.518;9.050;2023-08-01T08:08:48;3.40;;;2.95;;
14619;SDS011;32125;48.518;9.050;2023-08-01T08:11:15;5.67;;;3.80;;
14619;SDS011;32125;48.518;9.050;2023-08-01T08:13:43;5.20;;;3.87;;
14619;SDS011;32125;48.518;9.050;2023-08-01T08:16:09;5.25;;;3.58;;
14619;SDS011;32125;48.518;9.050;2023-08-01T08:18:35;6.40;;;3.60;;
14619;SDS011;32125;48.518;9.050;2023-08-01T08:21:01;5.93;;;3.90;;
14619;SDS011;32125;48.518;9.050;2023-08-01T08:23:27;4.07;;;3.50;;
14619;SDS011;32125;48.518;9.050;2023-08-01T08:25:53;6.77;;;4.03;;
14619;SDS011;32125;48.518;9.050;2023-08-01T08:28:34;5.40;;;3.87;;
14619;SDS011;32125;48.518;9.050;2023-08-01T08:31:00;5.27;;;3.40;;
14619;SDS011;32125;48.518;9.050;2023-08-01T08:33:30;4.15;;;3.10;;
14619;SDS011;32125;48.518;9.050;2023-08-01T08:35:58;4.53;;;3.30;;
14619;SDS011;32125;48.518;9.050;2023-08-01T08:38:27;4.80;;;3.20;;
14619;SDS011;32125;48.518;9.050;2023-08-01T08:43:32;4.97;;;3.40;;
14619;SDS011;32125;48.518;9.050;2023-08-01T08:45:59;4.70;;;3.00;;
14619;SDS011;32125;48.518;9.050;2023-08-01T08:48:26;3.40;;;3.10;;
14619;SDS011;32125;48.518;9.050;2023-08-01T08:50:52;5.40;;;3.13;;
14619;SDS011;32125;48.518;9.050;2023-08-01T08:53:20;3.28;;;2.83;;
14619;SDS011;32125;48.518;9.050;2023-08-01T08:55:47;5.00;;;3.40;;
14619;SDS011;32125;48.518;9.050;2023-08-01T08:58:13;5.23;;;3.10;;
14619;SDS011;32125;48.518;9.050;2023-08-01T09:00:41;3.47;;;2.90;;
14619;SDS011;32125;48.518;9.050;2023-08-01T09:03:08;4.57;;;3.00;;
14619;SDS011;32125;48.518;9.050;2023-08-01T09:05:45;3.40;;;3.10;;
14619;SDS011;32125;48.518;9.050;2023-08-01T09:08:18;3.40;;;2.57;;
14619;SDS011;32125;48.518;9.050;2023-08-01T09:10:45;3.57;;;2.63;;
14619;SDS011;32125;48.518;9.050;2023-08-01T09:13:11;3.23;;;2.77;;
14619;SDS011;32125;48.518;9.050;2023-08-01T09:15:37;4.07;;;2.57;;
14619;SDS011;32125;48.518;9.050;2023-08-01T09:18:06;3.00;;;2.70;;
14619;SDS011;32125;48.518;9.050;2023-08-01T09:23:09;4.88;;;2.10;;
14619;SDS011;32125;48.518;9.050;2023-08-01T09:25:36;2.47;;;2.20;;
14619;SDS011;32125;48.518;9.050;2023-08-01T09:28:17;2.03;;;1.80;;
14619;SDS011;32125;48.518;9.050;2023-08-01T09:30:51;3.10;;;2.00;;
14619;SDS011;32125;48.518;9.050;2023-08-01T09:33:20;2.28;;;1.90;;
14619;SDS011;32125;48.518;9.050;2023-08-01T09:35:46;1.95;;;1.75;;
14619;SDS011;32125;48.518;9.050;2023-08-01T09:38:15;2.42;;;1.77;;
14619;SDS011;32125;48.518;9.050;2023-08-01T09:40:41;3.33;;;1.80;;
14619;SDS011;32125;48.518;9.050;2023-08-01T09:43:10;2.10;;;1.90;;
14619;SDS011;32125;48.518;9.050;2023-08-01T09:45:37;2.13;;;1.63;;
14619;SDS011;32125;48.518;9.050;2023-08-01T09:48:05;1.98;;;1.67;;
14619;SDS011;32125;48.518;9.050;2023-08-01T09:50:31;2.85;;;1.67;;
14619;SDS011;32125;48.518;9.050;2023-08-01T09:53:06;1.73;;;1.63;;
14619;SDS011;32125;48.518;9.050;2023-08-01T09:55:32;2.85;;;1.73;;
14619;SDS011;32125;48.518;9.050;2023-08-01T09:58:05;2.15;;;1.80;;
14619;SDS011;32125;48.518;9.050;2023-08-01T10:00:34;4.17;;;1.70;;
14619;SDS011;32125;48.518;9.050;2023-08-01T10:03:03;2.75;;;1.90;;
14619;SDS011;32125;48.518;9.050;2023-08-01T10:05:30;2.72;;;2.00;;
14619;SDS011;32125;48.518;9.050;2023-08-01T10:07:59;2.77;;;2.17;;
14619;SDS011;32125;48.518;9.050;2023-08-01T10:10:26;2.03;;;1.90;;
14619;SDS011;32125;48.518;9.050;2023-08-01T10:12:54;3.25;;;2.00;;
14619;SDS011;32125;48.518;9.050;2023-08-01T10:15:20;2.80;;;2.00;;
14619;SDS011;32125;48.518;9.050;2023-08-01T10:17:46;2.20;;;1.93;;
14619;SDS011;32125;48.518;9.050;2023-08-01T10:20:14;3.03;;;1.90;;
14619;SDS011;32125;48.518;9.050;2023-08-01T10:22:41;2.43;;;2.23;;
14619;SDS011;32125;48.518;9.050;2023-08-01T10:25:08;2.60;;;2.10;;
14619;SDS011;32125;48.518;9.050;2023-08-01T10:27:38;2.22;;;1.83;;
14619;SDS011;32125;48.518;9.050;2023-08-01T10:30:06;2.10;;;1.90;;
14619;SDS011;32125;48.518;9.050;2023-08-01T10:32:36;1.83;;;1.73;;
14619;SDS011;32125;48.518;9.050;2023-08-01T10:35:04;2.17;;;1.63;;
14619;SDS011;32125;48.518;9.050;2023-08-01T10:38:07;3.97;;;1.95;;
14619;SDS011;32125;48.518;9.050;2023-08-01T10:40:38;2.75;;;1.48;;
14619;SDS011;32125;48.518;9.050;2023-08-01T10:43:04;1.92;;;1.55;;
14619;SDS011;32125;48.518;9.050;2023-08-01T10:45:30;1.58;;;1.40;;
14619;SDS011;32125;48.518;9.050;2023-08-01T10:48:09;2.97;;;1.48;;
14619;SDS011;32125;48.518;9.050;2023-08-01T10:50:36;1.38;;;1.05;;
14619;SDS011;32125;48.518;9.050;2023-08-01T10:53:03;1.50;;;1.15;;
14619;SDS011;32125;48.518;9.050;2023-08-01T10:55:38;1.10;;;1.00;;
14619;SDS011;32125;48.518;9.050;2023-08-01T10:58:04;1.20;;;1.10;;
14619;SDS011;32125;48.518;9.050;2023-08-01T11:00:30;0.98;;;0.90;;
14619;SDS011;32125;48.518;9.050;2023-08-01T11:02:56;1.10;;;1.00;;
14619;SDS011;32125;48.518;9.050;2023-08-01T11:05:22;1.33;;;0.95;;
14619;SDS011;32125;48.518;9.050;2023-08-01T11:07:55;0.93;;;0.80;;
14619;SDS011;32125;48.518;9.050;2023-08-01T11:10:28;1.00;;;1.00;;
14619;SDS011;32125;48.518;9.050;2023-08-01T11:12:54;1.25;;;0.77;;
14619;SDS011;32125;48.518;9.050;2023-08-01T11:15:20;0.90;;;0.90;;
14619;SDS011;32125;48.518;9.050;2023-08-01T11:17:47;1.70;;;0.98;;
14619;SDS011;32125;48.518;9.050;2023-08-01T11:20:17;0.80;;;0.80;;
14619;SDS011;32125;48.518;9.050;2023-08-01T11:22:58;1.20;;;1.10;;
14619;SDS011;32125;48.518;9.050;2023-08-01T11:25:37;1.48;;;0.95;;
14619;SDS011;32125;48.518;9.050;2023-08-01T11:28:08;0.82;;;0.80;;
14619;SDS011;32125;48.518;9.050;2023-08-01T11:30:37;1.83;;;1.15;;
14619;SDS011;32125;48.518;9.050;2023-08-01T11:33:25;0.80;;;0.80;;
14619;SDS011;32125;48.518;9.050;2023-08-01T11:35:51;1.90;;;1.02;;
14619;SDS011;32125;48.518;9.050;2023-08-01T11:38:18;0.73;;;0.73;;
14619;SDS011;32125;48.518;9.050;2023-08-01T11:40:44;1.15;;;0.80;;
14619;SDS011;32125;48.518;9.050;2023-08-01T11:43:11;0.88;;;0.88;;
14619;SDS011;32125;48.518;9.050;2023-08-01T11:45:37;1.45;;;0.90;;
14619;SDS011;32125;48.518;9.050;2023-08-01T11:48:13;1.02;;;0.88;;
14619;SDS011;32125;48.518;9.050;2023-08-01T11:50:41;0.95;;;0.95;;
14619;SDS011;32125;48.518;9.050;2023-08-01T11:53:17;1.00;;;0.93;;
14619;SDS011;32125;48.518;9.050;2023-08-01T11:55:46;0.93;;;0.93;;
14619;SDS011;32125;48.518;9.050;2023-08-01T11:58:12;1.70;;;0.85;;
14619;SDS011;32125;48.518;9.050;2023-08-01T12:00:39;0.80;;;0.80;;
14619;SDS011;32125;48.518;9.050;2023-08-01T12:03:06;2.05;;;0.80;;
14619;SDS011;32125;48.518;9.050;2023-08-01T12:05:33;0.80;;;0.80;;
14619;SDS011;32125;48.518;9.050;2023-08-01T12:08:11;0.80;;;0.80;;
14619;SDS011;32125;48.518;9.050;2023-08-01T12:10:41;0.80;;;0.80;;
14619;SDS011;32125;48.518;9.050;2023-08-01T12:13:23;0.98;;;0.90;;
14619;SDS011;32125;48.518;9.050;2023-08-01T12:15:50;1.75;;;0.77;;
14619;SDS011;32125;48.518;9.050;2023-08-01T12:18:34;1.45;;;0.82;;
14619;SDS011;32125;48.518;9.050;2023-08-01T12:21:04;1.58;;;0.93;;
14619;SDS011;32125;48.518;9.050;2023-08-01T12:23:31;1.02;;;0.93;;
14619;SDS011;32125;48.518;9.050;2023-08-01T12:25:56;0.82;;;0.82;;
14619;SDS011;32125;48.518;9.050;2023-08-01T12:28:22;0.80;;;0.80;;
14619;SDS011;32125;48.518;9.050;2023-08-01T12:30:48;0.77;;;0.77;;
14619;SDS011;32125;48.518;9.050;2023-08-01T12:33:18;0.93;;;0.75;;
14619;SDS011;32125;48.518;9.050;2023-08-01T12:35:45;0.75;;;0.75;;
14619;SDS011;32125;48.518;9.050;2023-08-01T12:38:11;1.77;;;0.98;;
14619;SDS011;32125;48.518;9.050;2023-08-01T12:40:36;0.70;;;0.70;;
14619;SDS011;32125;48.518;9.050;2023-08-01T12:43:02;0.88;;;0.80;;
14619;SDS011;32125;48.518;9.050;2023-08-01T12:45:28;1.40;;;0.82;;
14619;SDS011;32125;48.518;9.050;2023-08-01T12:47:54;1.77;;;1.00;;
14619;SDS011;32125;48.518;9.050;2023-08-01T12:50:23;1.15;;;1.00;;
14619;SDS011;32125;48.518;9.050;2023-08-01T12:52:49;1.55;;;0.90;;
14619;SDS011;32125;48.518;9.050;2023-08-01T12:55:17;1.35;;;1.05;;
14619;SDS011;32125;48.518;9.050;2023-08-01T12:57:43;0.80;;;0.80;;
14619;SDS011;32125;48.518;9.050;2023-08-01T13:00:09;2.03;;;0.90;;
14619;SDS011;32125;48.518;9.050;2023-08-01T13:02:36;0.80;;;0.80;;
14619;SDS011;32125;48.518;9.050;2023-08-01T13:05:05;1.10;;;1.00;;
14619;SDS011;32125;48.518;9.050;2023-08-01T13:07:31;1.00;;;1.00;;
14619;SDS011;32125;48.518;9.050;2023-08-01T13:09:58;4.07;;;1.00;;
14619;SDS011;32125;48.518;9.050;2023-08-01T13:12:24;2.13;;;0.75;;
14619;SDS011;32125;48.518;9.050;2023-08-01T13:14:50;0.98;;;0.90;;
14619;SDS011;32125;48.518;9.050;2023-08-01T13:17:18;1.58;;;0.80;;
14619;SDS011;32125;48.518;9.050;2023-08-01T13:19:44;2.38;;;0.88;;
14619;SDS011;32125;48.518;9.050;2023-08-01T13:22:10;2.63;;;1.10;;
14619;SDS011;32125;48.518;9.050;2023-08-01T13:24:36;2.13;;;0.80;;
14619;SDS011;32125;48.518;9.050;2023-08-01T13:27:02;1.05;;;1.00;;
14619;SDS011;32125;48.518;9.050;2023-08-01T13:29:29;1.20;;;0.73;;
14619;SDS011;32125;48.518;9.050;2023-08-01T13:31:55;2.38;;;0.80;;
14619;SDS011;32125;48.518;9.050;2023-08-01T13:34:21;1.55;;;0.70;;
14619;SDS011;32125;48.518;9.050;2023-08-01T13:36:47;1.25;;;0.80;;
14619;SDS011;32125;48.518;9.050;2023-08-01T13:39:13;1.02;;;1.00;;
14619;SDS011;32125;48.518;9.050;2023-08-01T13:41:39;0.73;;;0.73;;
14619;SDS011;32125;48.518;9.050;2023-08-01T13:44:07;1.08;;;1.00;;
14619;SDS011;32125;48.518;9.050;2023-08-01T13:46:34;0.82;;;0.82;;
14619;SDS011;32125;48.518;9.050;2023-08-01T13:49:03;3.28;;;0.80;;
14619;SDS011;32125;48.518;9.050;2023-08-01T13:51:31;2.15;;;0.95;;
14619;SDS011;32125;48.518;9.050;2023-08-01T13:53:57;2.22;;;0.93;;
14619;SDS011;32125;48.518;9.050;2023-08-01T13:56:24;0.90;;;0.90;;
14619;SDS011;32125;48.518;9.050;2023-08-01T13:58:52;0.80;;;0.80;;
14619;SDS011;32125;48.518;9.050;2023-08-01T14:01:18;1.88;;;1.10;;
14619;SDS011;32125;48.518;9.050;2023-08-01T14:03:44;1.10;;;1.00;;
14619;SDS011;32125;48.518;9.050;2023-08-01T14:06:12;1.67;;;0.88;;
14619;SDS011;32125;48.518;9.050;2023-08-01T14:08:38;1.08;;;0.90;;
14619;SDS011;32125;48.518;9.050;2023-08-01T14:11:05;1.58;;;0.82;;
14619;SDS011;32125;48.518;9.050;2023-08-01T14:13:33;0.80;;;0.80;;
14619;SDS011;32125;48.518;9.050;2023-08-01T14:15:59;0.90;;;0.90;;
14619;SDS011;32125;48.518;9.050;2023-08-01T14:18:29;1.27;;;0.93;;
14619;SDS011;32125;48.518;9.050;2023-08-01T14:20:58;0.82;;;0.80;;
14619;SDS011;32125;48.518;9.050;2023-08-01T14:23:24;1.20;;;1.10;;
14619;SDS011;32125;48.518;9.050;2023-08-01T14:25:50;1.27;;;1.00;;
14619;SDS011;32125;48.518;9.050;2023-08-01T14:28:16;0.90;;;0.90;;
14619;SDS011;32125;48.518;9.050;2023-08-01T14:30:42;1.00;;;1.00;;
14619;SDS011;32125;48.518;9.050;2023-08-01T14:33:08;0.80;;;0.80;;
14619;SDS011;32125;48.518;9.050;2023-08-01T14:35:38;1.30;;;1.15;;
14619;SDS011;32125;48.518;9.050;2023-08-01T14:38:04;1.02;;;0.90;;
14619;SDS011;32125;48.518;9.050;2023-08-01T14:40:30;0.80;;;0.80;;
14619;SDS011;32125;48.518;9.050;2023-08-01T14:42:57;0.75;;;0.75;;
14619;SDS011;32125;48.518;9.050;2023-08-01T14:45:23;0.90;;;0.90;;
14619;SDS011;32125;48.518;9.050;2023-08-01T14:47:53;1.20;;;0.90;;
14619;SDS011;32125;48.518;9.050;2023-08-01T14:50:19;3.42;;;0.95;;
14619;SDS011;32125;48.518;9.050;2023-08-01T14:52:45;1.02;;;1.00;;
14619;SDS011;32125;48.518;9.050;2023-08-01T14:55:11;2.38;;;1.05;;
14619;SDS011;32125;48.518;9.050;2023-08-01T14:57:37;1.58;;;0.98;;